METAR Data
IDs: Format: Raw Decoded Include TAF

Data at: 1827 UTC 06 Jul 2020

KSYN 061815Z AUTO 00000KT 10SM CLR 28/19 A2998 RMK AO2 T02820192
KSYN 061756Z AUTO 21004KT 10SM CLR 28/18 A3000 RMK AO2 T02750183 10276 20226
KSYN 061755Z AUTO 21004KT 10SM CLR 28/18 A3000 RMK AO2 T02750183 10276 20226
KSYN 061735Z AUTO 18004KT 10SM CLR 27/19 A2999 RMK AO2 T02690186
KSYN 061716Z AUTO 20003KT 10SM CLR 27/18 A2998 RMK AO2 T02670179
KSYN 061715Z AUTO 00000KT 10SM CLR 27/18 A2998 RMK AO2 T02670180
KSYN 061656Z AUTO 00000KT 10SM CLR 27/18 A2998 RMK AO2 T02670175
KSYN 061655Z AUTO 00000KT 10SM CLR 27/17 A2998 RMK AO2 T02680174
KSYN 061635Z AUTO 00000KT 10SM CLR 28/18 A2997 RMK AO2 LTG DSNT W T02760183
KSYN 061616Z AUTO 08006KT 10SM CLR 27/18 A2996 RMK AO2 T02670177
KSYN 061615Z AUTO 08007KT 10SM CLR 27/18 A2996 RMK AO2 T02670176
KSYN 061556Z AUTO 04004KT 10SM CLR 26/18 A2997 RMK AO2 T02610177
KSYN 061555Z AUTO 03005KT 10SM CLR 26/18 A2997 RMK AO2 T02610179
KSYN 061536Z AUTO 35004KT 10SM CLR 26/18 A2998 RMK AO2 T02580178
KSYN 061535Z AUTO 35004KT 10SM CLR 26/18 A2998 RMK AO2 T02580180
KSYN 061516Z AUTO 31006KT 10SM CLR 26/18 A2999 RMK AO2 T02590182
KSYN 061515Z AUTO 32007KT 10SM CLR 26/18 A2999 RMK AO2 T02590183
KSYN 061456Z AUTO 32008KT 10SM CLR 27/19 A2999 RMK AO2 LTG DSNT NE T02650187
KSYN 061455Z AUTO 32009KT 10SM CLR 27/19 A2999 RMK AO2 LTG DSNT N AND NE T02650190
KSYN 061436Z AUTO 28007KT 10SM SCT065 SCT080 26/20 A2999 RMK AO2 LTG DSNT N T02590198
KSYN 061435Z AUTO 29007KT 10SM SCT065 SCT080 26/20 A2999 RMK AO2 LTG DSNT N T02580197
KSYN 061415Z AUTO 28010KT 10SM SCT065 SCT080 26/21 A2999 RMK AO2 LTG DSNT N T02610206
KSYN 061355Z AUTO 27009KT 10SM CLR 27/21 A2999 RMK AO2 LTG DSNT N AND NE T02650206
KSYN 061335Z AUTO 26007KT 10SM TS CLR 26/21 A2998 RMK AO2 LTG DSNT N AND NE T02600212
KSYN 061315Z AUTO 24007KT 10SM VCTS CLR 25/21 A2998 RMK AO2 LTG DSNT N T02500207
KSYN 061255Z AUTO 24006KT 10SM VCTS SCT060 25/20 A2998 RMK AO2 LTG DSNT N T02470202
KSYN 061236Z AUTO 22005KT 10SM CLR 24/21 A2998 RMK AO2 LTG DSNT N T02420209
KSYN 061235Z AUTO 22005KT 10SM CLR 24/21 A2998 RMK AO2 LTG DSNT N T02410208
KSYN 061216Z AUTO 19003KT 10SM VCTS SCT065 23/20 A2997 RMK AO2 LTG DSNT N T02320201
KSYN 061215Z AUTO 00000KT 10SM VCTS SCT065 23/20 A2997 RMK AO2 LTG DSNT N T02320201
KSYN 061156Z AUTO 00000KT 10SM BKN065 23/20 A2997 RMK AO2 LTG DSNT N AND NW T02260196 10228 20213
KSYN 061155Z AUTO 00000KT 10SM BKN065 23/20 A2997 RMK AO2 LTG DSNT N AND NW T02260196 10228 20213
KSYN 061135Z AUTO 00000KT 10SM CLR 22/20 A2998 RMK AO2 T02200195
KSYN 061115Z AUTO 19003KT 10SM CLR 22/19 A2997 RMK AO2 T02170190
KSYN 061056Z AUTO 18004KT 10SM CLR 22/19 A2996 RMK AO2 LTG DSNT W T02200190
KSYN 061055Z AUTO 19004KT 10SM CLR 22/19 A2996 RMK AO2 LTG DSNT W T02200190
KSYN 061035Z AUTO 19005KT 10SM CLR 22/19 A2996 RMK AO2 LTG DSNT E T02210190
KSYN 061015Z AUTO 19003KT 10SM CLR 22/19 A2995 RMK AO2 T02150190
KSYN 060955Z AUTO 20003KT 10SM CLR 22/19 A2995 RMK AO2 T02240191
KSYN 060935Z AUTO 18003KT 10SM CLR 22/19 A2994 RMK AO2 LTG DSNT W T02150192
KSYN 060916Z AUTO 00000KT 10SM CLR 22/20 A2993 RMK AO2 T02190195
KSYN 060915Z AUTO 00000KT 10SM CLR 22/20 A2993 RMK AO2 T02190195
KSYN 060855Z AUTO 00000KT 10SM CLR 22/20 A2994 RMK AO2 LTG DSNT W T02220195
KSYN 060836Z AUTO 00000KT 10SM CLR 23/20 A2994 RMK AO2 T02250197
KSYN 060835Z AUTO 00000KT 10SM CLR 23/20 A2994 RMK AO2 T02250197
KSYN 060816Z AUTO 00000KT 10SM CLR 23/20 A2995 RMK AO2 LTG DSNT W T02250197
KSYN 060815Z AUTO 00000KT 10SM CLR 23/20 A2995 RMK AO2 LTG DSNT W T02250197
KSYN 060756Z AUTO 00000KT 10SM CLR 22/20 A2995 RMK AO2 LTG DSNT W T02200201
KSYN 060755Z AUTO 00000KT 10SM CLR 22/20 A2995 RMK AO2 LTG DSNT W T02200201
KSYN 060736Z AUTO 00000KT 10SM CLR 22/20 A2995 RMK AO2 T02220203
KSYN 060735Z AUTO 00000KT 10SM CLR 22/20 A2995 RMK AO2 T02220202
KSYN 060715Z AUTO 21003KT 10SM CLR 22/21 A2996 RMK AO2 T02220205
KSYN 060655Z AUTO 00000KT 10SM CLR 23/21 A2996 RMK AO2 T02270209
KSYN 060635Z AUTO 00000KT 10SM CLR 23/21 A2996 RMK AO2 T02250210
KSYN 060616Z AUTO 00000KT 10SM CLR 23/21 A2997 RMK AO2 T02280211
KSYN 060615Z AUTO 20003KT 10SM CLR 23/21 A2997 RMK AO2 T02280211
KSYN 060555Z AUTO 20004KT 10SM CLR 23/21 A2997 RMK AO2 T02260211 10307 20226 403230195
KSYN 060536Z AUTO 21004KT 10SM CLR 23/22 A2997 RMK AO2 T02310215
KSYN 060535Z AUTO 21004KT 10SM CLR 23/22 A2997 RMK AO2 T02310215
KSYN 060516Z AUTO 21004KT 10SM CLR 23/22 A2997 RMK AO2 T02340216
KSYN 060515Z AUTO 21004KT 10SM CLR 23/22 A2997 RMK AO2 T02330216
KSYN 060455Z AUTO 20004KT 10SM CLR 23/22 A2997 RMK AO2 T02320215
KSYN 060435Z AUTO 00000KT 10SM CLR 24/22 A2995 RMK AO2 T02390216
KSYN 060416Z AUTO 00000KT 10SM CLR 24/22 A2994 RMK AO2 T02360215
KSYN 060415Z AUTO 00000KT 10SM CLR 24/22 A2994 RMK AO2 T02360215
KSYN 060355Z AUTO 22003KT 10SM CLR 24/22 A2995 RMK AO2 T02350216
KSYN 060336Z AUTO 00000KT 10SM CLR 24/22 A2994 RMK AO2 T02410219
KSYN 060335Z AUTO 00000KT 10SM CLR 24/22 A2994 RMK AO2 T02410219
KSYN 060315Z AUTO 00000KT 10SM CLR 25/22 A2993 RMK AO2 T02460220
KSYN 060255Z AUTO 18003KT 10SM CLR 26/22 A2994 RMK AO2 T02560221
KSYN 060235Z AUTO 00000KT 10SM CLR 26/22 A2993 RMK AO2 LTG DSNT N T02640221
KSYN 060215Z AUTO 00000KT 10SM CLR 27/22 A2993 RMK AO2 T02720221
KSYN 060155Z AUTO 00000KT 10SM CLR 28/23 A2993 RMK AO2 LTG DSNT NE T02810227
KSYN 060135Z AUTO 00000KT 10SM SCT048 SCT065 29/23 A2994 RMK AO2 T02850228
KSYN 060116Z AUTO 00000KT 10SM BKN048 BKN050 BKN065 29/22 A2994 RMK AO2 T02910224
KSYN 060115Z AUTO 00000KT 10SM BKN048 BKN050 BKN065 29/22 A2994 RMK AO2 T02910224
KSYN 060055Z AUTO 27003KT 10SM CLR 30/21 A2993 RMK AO2 T02960214
KSYN 060035Z AUTO 25004KT 10SM CLR 30/21 A2993 RMK AO2 T03010214